Time;durP1;ratioP1;P1;durP2;ratioP2;P2;SDS_P1;SDS_P2;PMS_P1;PMS_P2;Temp;Humidity;BMP_temperature;BMP_pressure;BME280_temperature;BME280_humidity;BME280_pressure;Samples;Min_cycle;Max_cycle;Signal;HPM_P1;HPM_P2
2022/07/24 00:01:44;;;;;;;;;28.67;26.67;;;;;23.50;71.18;99457.84;6286382;20;3599286;-59
2022/07/24 00:04:13;;;;;;;;;32.00;30.00;;;;;23.79;69.29;99459.84;6285457;20;3585675;-60
2022/07/24 00:06:42;;;;;;;;;31.67;30.00;;;;;23.72;69.17;99470.69;6281096;20;3583725;-60
2022/07/24 00:09:11;;;;;;;;;29.67;28.67;;;;;24.13;67.18;99484.03;6284291;20;3597250;-59
2022/07/24 00:11:40;;;;;;;;;26.33;25.00;;;;;24.18;67.42;99491.72;6287755;20;3597319;-60
2022/07/24 00:14:09;;;;;;;;;30.00;30.00;;;;;23.75;69.81;99492.28;6286567;20;3585693;-60
2022/07/24 00:16:38;;;;;;;;;30.00;30.00;;;;;23.40;71.80;99494.53;6284028;20;3587759;-60
2022/07/24 00:19:07;;;;;;;;;33.33;30.00;;;;;23.72;70.66;99509.06;6282756;20;3593979;-60
2022/07/24 00:21:36;;;;;;;;;30.00;28.67;;;;;23.72;70.88;99524.69;6282830;20;3581503;-61
2022/07/24 00:24:06;;;;;;;;;33.67;30.00;;;;;23.40;72.32;99524.69;6283609;20;3591988;-60
2022/07/24 00:26:35;;;;;;;;;30.67;30.00;;;;;23.65;72.09;99540.97;6283854;20;3581478;-60
2022/07/24 00:29:04;;;;;;;;;30.00;29.67;;;;;23.39;71.99;99542.19;6283883;20;3588188;-60
2022/07/24 00:31:34;;;;;;;;;35.33;32.00;;;;;23.26;72.91;99552.88;6286253;20;3603385;-60
2022/07/24 00:34:04;;;;;;;;;29.67;27.67;;;;;23.51;71.29;99547.22;6280388;20;3581498;-60
2022/07/24 00:36:32;;;;;;;;;30.00;28.33;;;;;23.45;72.38;99541.44;6314379;20;3598166;-60
2022/07/24 00:39:01;;;;;;;;;35.33;31.33;;;;;23.23;72.94;99550.50;6282862;20;3587919;-60
2022/07/24 00:41:31;;;;;;;;;32.00;30.33;;;;;23.34;72.31;99555.56;6281023;20;2844171;-60
2022/07/24 00:44:13;;;;;;;;;30.67;30.00;;;;;23.38;72.10;99545.09;6314223;20;3572127;-60
2022/07/24 00:46:44;;;;;;;;;32.33;30.00;;;;;23.57;71.47;99552.84;6312086;20;3579407;-59
2022/07/24 00:49:18;;;;;;;;;28.33;28.33;;;;;23.54;70.76;99555.97;6280011;20;3581481;-59
2022/07/24 00:51:53;;;;;;;;;39.00;32.33;;;;;23.53;71.44;99548.75;6283871;20;3603386;-59
2022/07/24 00:54:23;;;;;;;;;32.67;28.00;;;;;23.77;70.32;99555.97;6283541;20;3583603;-59
2022/07/24 00:56:54;;;;;;;;;31.67;29.67;;;;;23.86;69.65;99543.94;6283070;20;3585647;-59
2022/07/24 00:59:23;;;;;;;;;33.00;31.00;;;;;23.71;71.18;99540.25;6282128;20;3587717;-60
2022/07/24 01:01:52;;;;;;;;;28.00;27.33;;;;;23.84;69.73;99537.78;6279909;20;3584705;-59
2022/07/24 01:04:22;;;;;;;;;31.67;30.67;;;;;24.02;69.40;99528.38;6280573;20;3594167;-59
2022/07/24 01:06:50;;;;;;;;;31.00;30.33;;;;;24.09;68.32;99521.09;6282985;20;3582583;-59
2022/07/24 01:09:19;;;;;;;;;30.33;30.00;;;;;24.08;68.38;99525.72;6278408;20;3589844;-59
2022/07/24 01:11:48;;;;;;;;;28.67;28.67;;;;;24.05;68.06;99536.22;6282122;20;3586668;-59
2022/07/24 01:14:17;;;;;;;;;25.33;25.33;;;;;24.14;68.27;99534.25;6278438;20;3590870;-59
2022/07/24 01:16:47;;;;;;;;;26.67;24.00;;;;;24.14;67.94;99535.09;6277630;20;3596097;-59
2022/07/24 01:19:17;;;;;;;;;32.00;30.00;;;;;24.35;66.78;99536.28;6312097;20;3589886;-59
2022/07/24 01:21:53;;;;;;;;;30.00;30.00;;;;;24.44;66.34;99544.28;6310731;20;3584731;-59
2022/07/24 01:24:22;;;;;;;;;29.33;29.00;;;;;24.54;65.84;99546.75;6307589;20;3581981;-59
2022/07/24 01:26:51;;;;;;;;;30.33;29.00;;;;;24.55;66.03;99547.59;6310343;20;3602516;-59
2022/07/24 01:29:21;;;;;;;;;30.25;29.25;;;;;24.48;66.19;99545.59;6280185;20;3604412;-59
2022/07/24 01:31:50;;;;;;;;;31.00;30.00;;;;;24.30;67.83;99545.94;6310827;20;3583620;-61
2022/07/24 01:34:20;;;;;;;;;30.00;29.00;;;;;24.30;68.08;99543.19;6311672;20;3582533;-61
2022/07/24 01:36:50;;;;;;;;;30.67;28.33;;;;;24.32;67.43;99540.25;6313524;20;3586755;-62
2022/07/24 01:39:18;;;;;;;;;29.00;27.67;;;;;24.24;68.16;99535.69;6282544;20;3598294;-62
2022/07/24 01:41:47;;;;;;;;;33.00;30.00;;;;;24.36;67.06;99530.63;6284192;20;3581507;-62
2022/07/24 01:44:16;;;;;;;;;33.33;31.67;;;;;24.48;66.81;99522.78;6285016;20;3585687;-61
2022/07/24 01:46:45;;;;;;;;;32.00;29.33;;;;;24.49;67.27;99521.78;6282446;20;3600246;-62
2022/07/24 01:49:15;;;;;;;;;27.00;27.00;;;;;24.58;66.98;99531.59;6276110;20;3602388;-62
2022/07/24 01:51:44;;;;;;;;;31.00;29.67;;;;;24.58;67.70;99526.13;6282194;20;3588818;-61
2022/07/24 01:54:13;;;;;;;;;29.75;27.25;;;;;24.59;67.30;99536.03;6280685;20;3606477;-59
2022/07/24 01:56:42;;;;;;;;;27.33;27.00;;;;;24.66;66.99;99528.75;6311251;20;3588785;-59
2022/07/24 01:59:11;;;;;;;;;27.67;27.67;;;;;24.63;67.82;99529.16;6284148;20;3594052;-59
2022/07/24 02:01:41;;;;;;;;;27.00;27.00;;;;;24.64;67.39;99532.75;6282227;20;3601301;-59
2022/07/24 02:04:10;;;;;;;;;26.00;24.00;;;;;24.66;67.67;99537.00;6277973;20;3576358;-59
2022/07/24 02:06:38;;;;;;;;;25.00;25.00;;;;;24.60;68.18;99529.53;6281401;20;3600280;-59
2022/07/24 02:09:07;;;;;;;;;29.00;28.67;;;;;24.58;67.55;99525.25;6277237;20;3601334;-58
2022/07/24 02:11:36;;;;;;;;;31.00;29.00;;;;;24.68;67.53;99510.22;6279018;20;3579432;-59
2022/07/24 02:14:06;;;;;;;;;25.67;25.00;;;;;24.55;67.82;99526.50;6278792;20;3584648;-59
2022/07/24 02:16:35;;;;;;;;;29.33;26.00;;;;;24.63;67.98;99520.91;6276328;20;3592957;-60
2022/07/24 02:19:04;;;;;;;;;27.33;24.67;;;;;24.69;67.72;99519.28;6281161;20;3594008;-59
2022/07/24 02:21:34;;;;;;;;;25.25;24.50;;;;;24.67;66.90;99522.25;6279317;20;3598306;-59
2022/07/24 02:24:04;;;;;;;;;26.33;23.67;;;;;24.76;67.05;99523.00;6309745;20;3598597;-59
2022/07/24 02:26:34;;;;;;;;;34.00;28.33;;;;;24.71;66.86;99520.81;6309819;20;3585682;-59
2022/07/24 02:29:03;;;;;;;;;27.33;27.33;;;;;24.77;66.75;99518.34;6311003;20;3597110;-59
2022/07/24 02:31:33;;;;;;;;;27.00;26.33;;;;;24.77;66.99;99519.19;6314587;20;3598290;-59
2022/07/24 02:34:02;;;;;;;;;28.00;26.00;;;;;24.74;66.96;99520.41;6279088;20;3595259;-58
2022/07/24 02:36:30;;;;;;;;;26.33;24.00;;;;;24.80;66.56;99526.19;6281318;20;3587802;-59
2022/07/24 02:38:59;;;;;;;;;24.00;22.33;;;;;24.84;66.32;99527.53;6281260;20;3598277;-59
2022/07/24 02:41:28;;;;;;;;;25.33;24.33;;;;;24.88;66.68;99537.06;6281870;20;3594054;-59
2022/07/24 02:43:57;;;;;;;;;23.67;23.00;;;;;24.78;67.36;99542.88;6282165;20;3580440;-62
2022/07/24 02:46:25;;;;;;;;;26.00;24.67;;;;;24.70;67.93;99546.56;6280866;20;3600412;-62
2022/07/24 02:48:54;;;;;;;;;25.67;24.33;;;;;24.69;68.15;99546.75;6279994;20;3592384;-62
2022/07/24 02:51:23;;;;;;;;;27.33;24.00;;;;;24.49;68.90;99550.06;6279982;20;3598134;-62
2022/07/24 02:53:52;;;;;;;;;27.33;26.00;;;;;24.47;69.77;99545.81;6280632;20;3597136;-63
2022/07/24 02:56:20;;;;;;;;;25.33;24.00;;;;;24.40;71.00;99531.09;6276888;20;3587758;-63
2022/07/24 02:58:49;;;;;;;;;23.67;23.67;;;;;24.31;71.59;99525.69;6279523;20;3591930;-63
2022/07/24 03:01:17;;;;;;;;;26.33;23.33;;;;;24.27;72.18;99510.63;6280970;20;3588929;-63
2022/07/24 03:03:47;;;;;;;;;24.75;23.25;;;;;24.26;73.22;99500.69;6282986;20;3598145;-63
2022/07/24 03:06:16;;;;;;;;;27.33;25.33;;;;;24.21;72.92;99486.69;6311363;20;3602331;-62
2022/07/24 03:08:45;;;;;;;;;25.00;25.00;;;;;24.16;73.83;99482.81;6282021;20;3598305;-63
2022/07/24 03:11:13;;;;;;;;;25.67;25.33;;;;;24.06;74.65;99489.41;6281278;20;3591884;-63
2022/07/24 03:13:42;;;;;;;;;25.67;24.33;;;;;24.15;76.03;99492.09;6278478;20;3585728;-63
2022/07/24 03:16:11;;;;;;;;;25.33;23.67;;;;;23.70;78.94;99494.69;6281905;20;3586808;-63
2022/07/24 03:18:41;;;;;;;;;26.67;25.67;;;;;23.58;81.16;99498.88;6282796;20;3595075;-63
2022/07/24 03:21:09;;;;;;;;;29.00;26.33;;;;;23.44;81.79;99484.94;6282078;20;3596095;-63
2022/07/24 03:23:58;;;;;;;;;29.67;27.00;;;;;23.51;81.38;99479.56;6277594;20;3571215;-62
2022/07/24 03:26:27;;;;;;;;;24.33;24.33;;;;;23.42;81.48;99483.41;6279805;20;3591385;-62
2022/07/24 03:28:56;;;;;;;;;32.00;29.67;;;;;23.33;82.44;99470.78;6280676;20;3587740;-62
2022/07/24 03:31:24;;;;;;;;;28.33;27.00;;;;;23.66;80.05;99472.25;6279602;20;3585637;-63
2022/07/24 03:33:53;;;;;;;;;26.00;26.00;;;;;23.67;78.99;99463.00;6284821;20;3478435;-63
2022/07/24 03:36:22;;;;;;;;;27.00;26.00;;;;;23.76;78.27;99469.28;6315215;20;3592984;-64
2022/07/24 03:38:51;;;;;;;;;30.33;29.00;;;;;23.82;76.98;99474.03;6286622;20;3606631;-64
2022/07/24 03:41:19;;;;;;;;;28.33;26.67;;;;;23.83;77.39;99472.16;6283002;20;3591898;-63
2022/07/24 03:43:48;;;;;;;;;28.67;27.67;;;;;23.82;77.66;99471.28;6282636;20;3608546;-62
2022/07/24 03:46:17;;;;;;;;;27.67;26.67;;;;;23.79;77.00;99471.66;6281623;20;3593989;-63
2022/07/24 03:48:46;;;;;;;;;28.00;27.33;;;;;23.76;77.32;99466.56;6283685;20;3601253;-63
2022/07/24 03:51:15;;;;;;;;;33.67;30.33;;;;;23.70;78.53;99467.28;6284893;20;3592968;-63
2022/07/24 03:53:47;;;;;;;;;29.67;29.00;;;;;23.55;80.22;99469.09;6284120;20;3588760;-62
2022/07/24 03:56:17;;;;;;;;;26.00;26.00;;;;;23.50;80.64;99468.81;6279505;20;3598215;-62
2022/07/24 03:58:46;;;;;;;;;27.00;27.00;;;;;23.26;82.10;99469.84;6284311;20;3592044;-62
2022/07/24 04:01:14;;;;;;;;;24.67;24.67;;;;;23.33;82.16;99477.16;6285629;20;3600242;-59
2022/07/24 04:03:43;;;;;;;;;31.00;30.00;;;;;23.21;81.08;99476.69;6285969;20;3575264;-60
2022/07/24 04:06:12;;;;;;;;;30.33;28.00;;;;;23.33;80.88;99482.63;6283765;20;3595044;-59
2022/07/24 04:08:41;;;;;;;;;29.00;28.00;;;;;23.38;78.95;99479.31;6286702;20;3583713;-59
2022/07/24 04:11:10;;;;;;;;;28.33;25.67;;;;;23.51;78.68;99489.69;6279485;20;3593077;-60
2022/07/24 04:13:39;;;;;;;;;27.67;26.67;;;;;23.45;79.11;99489.38;6282498;20;3600240;-60
2022/07/24 04:16:11;;;;;;;;;27.00;27.00;;;;;23.40;79.43;99480.00;6282754;20;3593032;-59
2022/07/24 04:18:40;;;;;;;;;29.00;27.00;;;;;23.41;79.40;99482.56;6287255;20;3604392;-58
2022/07/24 04:21:10;;;;;;;;;28.25;24.25;;;;;23.55;78.45;99469.09;6283094;20;3606453;-59
2022/07/24 04:23:40;;;;;;;;;29.00;24.00;;;;;23.77;76.75;99472.88;6312206;20;3605744;-58
2022/07/24 04:26:09;;;;;;;;;24.33;24.33;;;;;23.94;75.06;99485.41;6310246;20;3577363;-58
2022/07/24 04:28:38;;;;;;;;;24.00;23.00;;;;;24.08;74.83;99492.81;6280029;20;3576359;-58
2022/07/24 04:31:07;;;;;;;;;5.00;4.00;;;;;24.09;75.00;99501.88;6280780;20;2742981;-58
2022/07/24 04:33:37;;;;;;;;;28.50;26.00;;;;;24.14;73.80;99502.19;6314032;20;3602330;-58
2022/07/24 04:36:07;;;;;;;;;27.33;24.67;;;;;24.18;72.85;99506.28;6314230;20;3595177;-59
2022/07/24 04:38:40;;;;;;;;;26.67;25.33;;;;;24.34;72.53;99512.63;6314126;20;3600278;-58
2022/07/24 04:41:09;;;;;;;;;26.67;26.67;;;;;24.36;72.03;99524.28;6282672;20;3595035;-59
2022/07/24 04:43:38;;;;;;;;;27.50;25.00;;;;;24.45;71.41;99532.25;6281993;20;3600216;-59
2022/07/24 04:46:08;;;;;;;;;28.00;27.00;;;;;24.59;70.64;99533.28;6313042;20;3598144;-59
2022/07/24 04:48:37;;;;;;;;;25.00;24.67;;;;;24.60;70.46;99535.03;6285612;20;3591885;-58
2022/07/24 04:51:05;;;;;;;;;27.00;24.33;;;;;24.78;69.66;99536.50;6285115;20;3593965;-58
2022/07/24 04:53:34;;;;;;;;;25.67;25.67;;;;;24.91;69.29;99536.72;6284559;20;3589806;-59
2022/07/24 04:56:03;;;;;;;;;28.00;25.67;;;;;25.24;68.21;99547.31;6281390;20;3597217;-59
2022/07/24 04:58:32;;;;;;;;;24.00;24.00;;;;;25.50;66.77;99552.25;6279357;20;3594005;-59
2022/07/24 05:01:01;;;;;;;;;24.00;23.00;;;;;25.71;66.51;99559.69;6279483;20;3585670;-59
2022/07/24 05:03:30;;;;;;;;;27.00;25.67;;;;;25.72;66.07;99551.22;6284138;20;3591895;-59
2022/07/24 05:05:59;;;;;;;;;20.75;20.75;;;;;25.99;65.40;99557.88;6283386;20;3591927;-58
2022/07/24 05:08:29;;;;;;;;;24.75;24.50;;;;;25.96;65.21;99558.28;6315901;20;3602560;-58
2022/07/24 05:10:58;;;;;;;;;26.33;24.00;;;;;26.12;65.40;99557.16;6310949;20;3588756;-59
2022/07/24 05:13:28;;;;;;;;;24.00;24.00;;;;;26.02;65.12;99564.88;6305410;20;3597212;-60
2022/07/24 05:15:57;;;;;;;;;25.33;23.33;;;;;26.20;64.39;99567.16;6279775;20;3584651;-58
2022/07/24 05:18:26;;;;;;;;;24.75;24.25;;;;;26.32;63.30;99570.22;6285483;20;3598127;-58
2022/07/24 05:20:56;;;;;;;;;28.00;23.67;;;;;26.25;63.95;99572.91;6311059;20;3600238;-58
2022/07/24 05:23:25;;;;;;;;;24.00;22.00;;;;;26.22;64.58;99570.56;6279969;20;3587779;-57
2022/07/24 05:25:53;;;;;;;;;23.00;23.00;;;;;26.19;64.20;99584.72;6285382;20;3582560;-57
2022/07/24 05:28:22;;;;;;;;;27.33;27.33;;;;;26.08;64.20;99585.25;6285609;20;3584661;-58
2022/07/24 05:30:51;;;;;;;;;25.00;23.33;;;;;25.98;65.15;99583.66;6279833;20;3583662;-60
2022/07/24 05:33:20;;;;;;;;;23.67;23.67;;;;;26.12;65.06;99587.41;6283550;20;3600219;-58
2022/07/24 05:35:49;;;;;;;;;27.00;24.00;;;;;26.13;64.67;99591.88;6284389;20;3602322;-57
2022/07/24 05:38:17;;;;;;;;;21.67;21.67;;;;;26.05;63.80;99600.25;6282501;20;3583644;-58
2022/07/24 05:40:46;;;;;;;;;27.00;27.00;;;;;26.05;64.41;99603.84;6281355;20;3597509;-57
2022/07/24 05:43:16;;;;;;;;;19.00;19.00;;;;;26.13;64.43;99602.03;6283346;20;3573253;-54
2022/07/24 05:45:45;;;;;;;;;28.00;27.00;;;;;25.98;64.60;99607.59;6284687;20;3597147;-56
2022/07/24 05:48:14;;;;;;;;;22.67;22.67;;;;;26.11;63.68;99607.72;6280923;20;3586820;-54
2022/07/24 05:50:43;;;;;;;;;22.67;22.67;;;;;26.26;62.99;99607.66;6284270;20;3590925;-55
2022/07/24 05:53:12;;;;;;;;;25.25;24.25;;;;;26.29;63.27;99612.75;6283313;20;3602371;-56
2022/07/24 05:55:43;;;;;;;;;21.71;20.14;;;;;26.21;63.53;99612.91;6323973;20;3579454;-54
2022/07/24 05:58:12;;;;;;;;;26.33;26.33;;;;;26.23;63.29;99616.31;6282323;20;3590943;-49
2022/07/24 06:00:41;;;;;;;;;27.33;23.00;;;;;26.24;63.07;99615.25;6283615;20;3590869;-56
2022/07/24 06:03:10;;;;;;;;;24.67;24.67;;;;;26.21;62.96;99622.00;6284335;20;3588770;-57
2022/07/24 06:05:39;;;;;;;;;23.75;23.75;;;;;26.55;61.91;99619.56;6282727;20;3598178;-58
2022/07/24 06:08:09;;;;;;;;;27.25;26.00;;;;;26.63;61.13;99625.78;6312406;20;3597106;-55
2022/07/24 06:10:38;;;;;;;;;24.50;22.25;;;;;27.07;59.99;99623.75;6311509;20;3596062;-57
2022/07/24 06:13:07;;;;;;;;;23.33;23.33;;;;;27.11;59.35;99627.78;6315090;20;3582507;-58
2022/07/24 06:15:37;;;;;;;;;24.25;24.25;;;;;27.17;59.44;99632.50;6278863;20;3598272;-58
2022/07/24 06:18:09;;;;;;;;;27.00;26.00;;;;;27.17;59.18;99621.47;6312535;20;3586730;-58
2022/07/24 06:20:38;;;;;;;;;22.00;20.67;;;;;27.11;59.42;99622.28;6277793;20;3580855;-57
2022/07/24 06:23:10;;;;;;;;;23.33;22.67;;;;;27.44;58.64;99624.41;6310698;20;3583606;-59
2022/07/24 06:25:50;;;;;;;;;26.67;25.00;;;;;27.30;57.17;99624.31;6279356;20;3597206;-57
2022/07/24 06:28:20;;;;;;;;;22.67;21.67;;;;;27.54;57.10;99624.84;6280960;20;3572385;-57
2022/07/24 06:30:48;;;;;;;;;25.67;24.67;;;;;27.79;56.42;99619.63;6282421;20;3594099;-57
2022/07/24 06:33:19;;;;;;;;;25.75;22.25;;;;;28.16;55.57;99625.69;6281406;20;3598229;-57
2022/07/24 06:35:48;;;;;;;;;26.00;24.33;;;;;28.45;55.02;99627.22;6310940;20;3574229;-56
2022/07/24 06:38:17;;;;;;;;;22.00;22.00;;;;;28.41;54.10;99623.13;6308789;20;3575237;-54
2022/07/24 06:40:46;;;;;;;;;26.25;25.50;;;;;28.54;53.15;99628.72;6284180;20;3596064;-58
2022/07/24 06:43:18;;;;;;;;;24.29;22.86;;;;;28.74;53.85;99628.69;6329507;20;3590044;-54
2022/07/24 06:45:47;;;;;;;;;24.33;21.67;;;;;28.37;53.27;99631.00;6279569;20;3580533;-57
2022/07/24 06:48:17;;;;;;;;;21.33;20.00;;;;;28.48;53.01;99624.03;6311701;20;3583563;-56
2022/07/24 06:50:47;;;;;;;;;23.75;23.25;;;;;28.98;52.64;99618.03;6312276;20;3598358;-55
2022/07/24 06:53:18;;;;;;;;;22.71;21.29;;;;;29.32;51.60;99630.72;6328396;20;3583668;-57
2022/07/24 06:55:47;;;;;;;;;22.67;22.67;;;;;29.33;50.83;99626.88;6276723;20;3579414;-57
2022/07/24 06:58:16;;;;;;;;;25.67;24.00;;;;;29.38;50.60;99635.38;6281399;20;3585697;-57
2022/07/24 07:00:44;;;;;;;;;23.00;22.00;;;;;29.49;51.07;99634.72;6282684;20;3587921;-57
2022/07/24 07:03:13;;;;;;;;;25.67;23.00;;;;;29.72;49.34;99636.13;6278397;20;3590894;-57
2022/07/24 07:05:42;;;;;;;;;25.33;23.67;;;;;30.16;47.94;99640.75;6277723;20;1896089;-55
2022/07/24 07:08:13;;;;;;;;;22.14;22.14;;;;;30.43;47.16;99636.97;6332887;20;3591007;-57
2022/07/24 07:10:43;;;;;;;;;25.00;24.33;;;;;30.60;46.79;99635.34;6284427;20;3606550;-58
2022/07/24 07:13:11;;;;;;;;;25.67;23.33;;;;;30.08;47.47;99643.78;6284965;20;3591934;-54
2022/07/24 07:15:40;;;;;;;;;25.00;25.00;;;;;30.70;46.57;99643.13;6286458;20;3589016;-54
2022/07/24 07:18:11;;;;;;;;;23.86;21.29;;;;;30.37;45.07;99647.88;6301367;20;3591892;-54
2022/07/24 07:20:41;;;;;;;;;24.00;24.00;;;;;30.11;45.70;99650.81;6282076;20;3588853;-58
2022/07/24 07:23:12;;;;;;;;;20.71;19.29;;;;;30.01;45.58;99651.28;6334980;20;3585818;-57
2022/07/24 07:25:42;;;;;;;;;26.50;25.00;;;;;30.32;44.73;99653.25;6286293;20;3600413;-59
2022/07/24 07:28:13;;;;;;;;;28.83;25.83;;;;;31.12;42.96;99654.50;6336370;20;3600358;-51
2022/07/24 07:30:42;;;;;;;;;23.25;23.25;;;;;31.10;42.70;99665.84;6281176;20;3594080;-60
2022/07/24 07:33:14;;;;;;;;;28.29;27.29;;;;;31.14;43.19;99667.06;6332622;20;3590998;-48
2022/07/24 07:35:43;;;;;;;;;24.50;23.75;;;;;31.34;41.96;99672.41;6288732;20;3596132;-51
2022/07/24 07:38:15;;;;;;;;;25.71;25.71;;;;;31.93;41.52;99668.06;6334406;20;3600296;-49
2022/07/24 07:40:53;;;;;;;;;24.29;23.57;;;;;31.35;41.96;99673.25;6301020;20;3598242;-49
2022/07/24 07:43:24;;;;;;;;;21.86;21.86;;;;;31.86;40.17;99678.41;6303872;20;3581610;-50
2022/07/24 07:45:53;;;;;;;;;22.33;22.00;;;;;31.87;39.93;99682.03;6286043;20;3568032;-48
2022/07/24 07:48:25;;;;;;;;;20.57;20.00;;;;;31.73;39.21;99680.50;6305188;20;3579423;-49
2022/07/24 07:50:57;;;;;;;;;21.43;19.86;;;;;31.08;39.97;99683.78;6303388;20;3555434;-53
2022/07/24 07:53:26;;;;;;;;;19.00;19.00;;;;;30.95;40.93;99679.22;6283891;20;3572283;-52
2022/07/24 07:55:56;;;;;;;;;22.25;22.00;;;;;31.52;40.26;99685.47;6283549;20;3586706;-48
2022/07/24 07:58:28;;;;;;;;;24.33;23.00;;;;;31.21;40.47;99687.25;6313088;20;3594039;-47
2022/07/24 08:00:59;;;;;;;;;24.00;22.43;;;;;31.61;39.76;99688.78;6300501;20;3593967;-50
2022/07/24 08:03:30;;;;;;;;;21.57;21.57;;;;;31.47;40.14;99688.09;6299613;20;3570006;-50
2022/07/24 08:06:01;;;;;;;;;23.33;23.00;;;;;31.82;39.20;99687.44;6285569;20;1891948;-51
2022/07/24 08:08:32;;;;;;;;;21.14;19.57;;;;;31.80;39.09;99682.09;6332160;20;3565886;-49
2022/07/24 08:11:01;;;;;;;;;24.00;21.00;;;;;32.63;38.27;99679.72;6283226;20;3586148;-51
2022/07/24 08:13:33;;;;;;;;;22.57;19.71;;;;;32.77;37.68;99687.56;6293404;20;3585071;-51
2022/07/24 08:16:01;;;;;;;;;20.67;20.67;;;;;32.21;37.92;99696.34;6283014;20;1889884;-51
2022/07/24 08:18:32;;;;;;;;;21.80;20.40;;;;;31.97;37.25;99687.91;6331106;20;2719545;-52
2022/07/24 08:21:02;;;;;;;;;22.00;20.67;;;;;32.07;36.73;99687.34;6311016;20;3573142;-51
2022/07/24 08:23:31;;;;;;;;;23.00;21.33;;;;;32.20;36.85;99697.41;6316797;20;3587827;-50
2022/07/24 08:26:01;;;;;;;;;20.33;19.00;;;;;32.10;36.93;99690.50;6280457;20;3567986;-48
2022/07/24 08:28:30;;;;;;;;;19.33;19.33;;;;;32.18;35.34;99691.25;6313063;20;3557521;-51
2022/07/24 08:31:00;;;;;;;;;20.33;18.67;;;;;31.92;35.89;99684.97;6307078;20;3571067;-52
2022/07/24 08:33:29;;;;;;;;;20.33;19.33;;;;;31.92;35.16;99688.63;6313878;20;3574438;-50
2022/07/24 08:35:58;;;;;;;;;16.33;16.33;;;;;32.26;35.00;99685.38;6312172;20;3564822;-55
2022/07/24 08:38:27;;;;;;;;;17.67;17.33;;;;;32.22;35.82;99704.44;6284314;20;3560770;-51
2022/07/24 08:40:55;;;;;;;;;19.00;19.00;;;;;32.20;35.99;99698.25;6286856;20;3575389;-51
2022/07/24 08:43:24;;;;;;;;;19.33;18.00;;;;;32.22;36.69;99706.38;6279807;20;3561725;-52
2022/07/24 08:45:56;;;;;;;;;23.57;22.29;;;;;32.62;36.07;99694.66;6302335;20;3585720;-50
2022/07/24 08:48:27;;;;;;;;;19.33;18.67;;;;;32.43;35.63;99708.63;6284569;20;3562797;-50
2022/07/24 08:50:59;;;;;;;;;24.57;22.43;;;;;32.07;36.45;99704.88;6298858;20;3589840;-50
2022/07/24 08:53:28;;;;;;;;;25.33;25.33;;;;;32.28;36.95;99710.97;6277003;20;3590853;-51
2022/07/24 08:56:00;;;;;;;;;22.43;22.43;;;;;32.58;36.00;99700.72;6331909;20;3576281;-47
2022/07/24 08:58:28;;;;;;;;;33.67;28.67;;;;;33.33;34.87;99706.72;6282691;20;3598224;-57
2022/07/24 09:01:00;;;;;;;;;21.43;21.00;;;;;32.88;35.80;99702.56;6303045;20;3575232;-58
2022/07/24 09:03:38;;;;;;;;;19.33;19.33;;;;;32.64;34.99;99715.59;6284289;20;3567022;-57
2022/07/24 09:06:10;;;;;;;;;19.00;19.00;;;;;32.68;34.09;99711.25;6276207;20;3571078;-57
2022/07/24 09:08:41;;;;;;;;;15.33;14.33;;;;;32.62;34.06;99708.56;6313260;20;3541887;-58
2022/07/24 09:11:11;;;;;;;;;20.33;19.00;;;;;32.41;33.46;99713.56;6283054;20;3574194;-53
2022/07/24 09:16:38;;;;;;;;;12.67;12.33;;;;;32.72;32.52;99708.84;6283224;20;2491909;-57
2022/07/24 09:19:09;;;;;;;;;16.33;14.67;;;;;33.18;31.84;99704.44;6312721;20;3548182;-54
2022/07/24 09:21:44;;;;;;;;;22.33;17.33;;;;;32.07;33.01;99704.88;6281395;20;3561742;-53
2022/07/24 09:24:20;;;;;;;;;16.00;16.00;;;;;31.98;33.99;99706.28;6287008;20;3555455;-59
2022/07/24 09:26:55;;;;;;;;;12.00;12.00;;;;;32.17;33.75;99720.13;6284209;20;3519058;-60
2022/07/24 09:29:26;;;;;;;;;13.67;13.67;;;;;32.26;33.33;99718.72;6312542;20;3526695;-59
2022/07/24 09:32:01;;;;;;;;;17.33;15.67;;;;;32.14;33.01;99727.00;6305998;20;2818060;-58
2022/07/24 09:34:40;;;;;;;;;18.60;18.60;;;;;32.69;32.61;99717.66;6340266;20;3577345;-61
2022/07/24 09:37:10;;;;;;;;;15.33;15.33;;;;;32.96;32.49;99721.69;6281847;20;3554488;-61
2022/07/24 09:39:39;;;;;;;;;17.67;17.67;;;;;32.29;33.69;99718.25;6285501;20;3571061;-60
2022/07/24 09:42:09;;;;;;;;;18.00;16.00;;;;;32.24;33.48;99712.56;6284952;20;3563828;-60
2022/07/24 09:44:39;;;;;;;;;21.33;20.33;;;;;32.19;34.23;99720.75;6284748;20;3560810;-60
2022/07/24 09:47:11;;;;;;;;;19.67;19.00;;;;;32.58;33.71;99716.56;6277768;20;3581541;-60
2022/07/24 09:49:41;;;;;;;;;17.00;17.00;;;;;33.17;32.69;99711.09;6311669;20;2833803;-60
2022/07/24 09:52:18;;;;;;;;;21.00;19.50;;;;;33.10;32.17;99711.22;6312800;20;3444034;-60
2022/07/24 09:54:53;;;;;;;;;20.14;19.43;;;;;33.44;31.49;99720.66;6326362;20;3575231;-61
2022/07/24 09:57:29;;;;;;;;;18.67;18.67;;;;;33.04;31.72;99706.59;6276453;20;3566910;-59
2022/07/24 10:00:06;;;;;;;;;17.67;17.67;;;;;33.40;31.42;99713.03;6278666;20;3562788;-58
2022/07/24 10:02:36;;;;;;;;;13.33;13.33;;;;;33.73;29.66;99717.09;6280662;20;3534788;-59
2022/07/24 10:05:09;;;;;;;;;14.33;13.67;;;;;32.99;31.43;99714.78;6315384;20;3521096;-59
2022/07/24 10:07:42;;;;;;;;;18.00;18.00;;;;;33.25;31.85;99709.88;6296960;20;3560760;-59
2022/07/24 10:10:12;;;;;;;;;17.67;17.67;;;;;33.52;31.13;99704.63;6280566;20;3565974;-59
2022/07/24 10:12:46;;;;;;;;;18.00;16.33;;;;;33.85;30.79;99715.97;6277866;20;3566064;-59
2022/07/24 10:15:16;;;;;;;;;17.50;16.00;;;;;33.28;30.90;99704.66;6310102;20;3447193;-61
2022/07/24 10:18:08;;;;;;;;;14.67;14.67;;;;;32.62;31.32;99705.78;6303327;20;3550274;-60
2022/07/24 10:20:46;;;;;;;;;11.00;11.00;;;;;32.57;31.23;99704.59;6279787;20;2483765;-58
2022/07/24 10:23:28;;;;;;;;;15.67;15.33;;;;;32.60;31.09;99702.41;6312552;20;3552525;-58
2022/07/24 10:26:50;;;;;;;;;14.67;14.67;;;;;33.03;31.16;99706.88;6278837;20;3529444;-58
2022/07/24 10:29:23;;;;;;;;;17.67;17.33;;;;;33.93;30.74;99699.97;6310341;20;2837917;-58
2022/07/24 10:31:56;;;;;;;;;16.67;14.00;;;;;33.91;29.86;99705.78;6313038;20;3552359;-57
2022/07/24 10:34:40;;;;;;;;;17.33;17.00;;;;;34.09;28.82;99707.56;6280508;20;3579456;-58
2022/07/24 10:37:36;;;;;;;;;11.00;11.00;;;;;33.98;28.83;99711.22;6279631;20;2807549;-59
2022/07/24 10:40:24;;;;;;;;;16.50;16.00;;;;;33.01;30.12;99699.59;6277857;20;2824288;-57
2022/07/24 10:43:05;;;;;;;;;15.33;13.33;;;;;31.84;30.81;99697.25;6285249;20;3533654;-58
2022/07/24 10:45:49;;;;;;;;;17.29;17.29;;;;;32.09;31.38;99702.69;6336657;20;3573217;-58
2022/07/24 10:48:21;;;;;;;;;17.33;16.00;;;;;31.91;31.88;99700.78;6286817;20;2833687;-58
2022/07/24 10:51:05;;;;;;;;;20.29;20.14;;;;;32.12;31.68;99704.16;6336407;20;3575278;-57
2022/07/24 10:53:38;;;;;;;;;20.33;16.00;;;;;32.08;32.23;99705.72;6288261;20;2829699;-59
2022/07/24 10:56:38;;;;;;;;;18.67;17.67;;;;;31.86;32.73;99702.53;6311671;20;3569585;-57
2022/07/24 10:59:13;;;;;;;;;18.00;18.00;;;;;32.71;30.88;99699.66;6314533;20;3569016;-57
2022/07/24 11:01:44;;;;;;;;;18.33;18.33;;;;;33.10;31.03;99707.56;6317344;20;3573205;-57
2022/07/24 11:04:22;;;;;;;;;20.33;18.67;;;;;33.25;31.20;99707.94;6283134;20;3575264;-59
2022/07/24 11:07:12;;;;;;;;;20.33;19.33;;;;;33.53;30.62;99706.34;6314068;20;3564825;-59
2022/07/24 11:10:07;;;;;;;;;17.67;17.67;;;;;33.72;30.39;99705.13;6314374;20;3558625;-55
2022/07/24 11:12:43;;;;;;;;;16.67;16.67;;;;;33.37;29.37;99700.44;6315156;20;3570080;-58
2022/07/24 11:18:16;;;;;;;;;14.50;14.50;;;;;33.31;30.49;99698.63;6284670;20;2810754;-59
2022/07/24 11:20:44;;;;;;;;;16.00;16.00;;;;;33.35;28.75;99694.25;6282521;20;3556640;-61
2022/07/24 11:23:21;;;;;;;;;20.00;18.33;;;;;33.60;29.49;99693.19;6281400;20;3566967;-61
2022/07/24 11:25:51;;;;;;;;;18.67;18.67;;;;;33.53;29.20;99690.47;6284035;20;3576354;-60